CCT2 weather

Cookstown Airport
Cookstown, Ontario, Canada

Public forecast

Using degrees Celsius for public forecast. Weather courtesy of forecast.io.

Closest aviation weather report (METAR) to Cookstown Airport

Closest report is CFB Borden, 11.9 nm (22.1 km) W. Retrieved 2019/11/20 10:35 UTC (9 minutes ago):

CYBN 201035Z AUTO 00000KT 3SM SCT027 OVC051 00/M00 A3000

Closest aviation forecast (TAF) to Cookstown Airport

Closest forecast is CFB Borden, 11.9 nm (22.1 km) W. Retrieved 2019/11/20 10:18 UTC (26 minutes ago):

TAF TAF CYBN 201015Z 2010/2022 VRB03KT 1SM BR BKN020 OVC050 TEMPO 2010/2013 3SM BR SCT020 BKN050 OVC070 BECMG 2013/2015 28005KT P6SM NSW FM201500 30008KT P6SM BKN020 OVC050 TEMPO 2015/2022 BKN025 OVC050 RMK FCST BASED ON AUTO OBS NXT FCST BY 201200Z